Time;durP1;ratioP1;P1;durP2;ratioP2;P2;SDS_P1;SDS_P2;PMS_P1;PMS_P2;Temp;Humidity;BMP_temperature;BMP_pressure;BME280_temperature;BME280_humidity;BME280_pressure;Samples;Min_cycle;Max_cycle;Signal;HPM_P1;HPM_P2
2022/09/10 00:01:17;;;;;;;5.70;3.58;;;;;;;12.38;63.67;99911.34;1695591;84;21053;-41
2022/09/10 00:03:44;;;;;;;7.08;4.22;;;;;;;12.39;63.86;99910.95;1707042;84;21050;-41
2022/09/10 00:06:11;;;;;;;7.08;4.10;;;;;;;12.37;63.98;99914.63;1707228;83;23216;-41
2022/09/10 00:08:39;;;;;;;8.38;4.17;;;;;;;12.31;64.08;99911.97;1707299;84;20962;-41
2022/09/10 00:11:09;;;;;;;6.80;4.85;;;;;;;12.25;64.22;99905.23;1707291;83;20918;-41
2022/09/10 00:13:38;;;;;;;7.92;4.25;;;;;;;12.20;64.42;99907.66;1707061;84;21045;-41
2022/09/10 00:16:08;;;;;;;7.97;3.60;;;;;;;12.16;64.63;99914.17;1707296;83;21097;-41
2022/09/10 00:18:35;;;;;;;10.35;4.35;;;;;;;12.17;64.82;99913.03;1707479;84;21760;-41
2022/09/10 00:21:06;;;;;;;8.38;3.92;;;;;;;12.19;64.80;99914.27;1707128;84;21495;-41
2022/09/10 00:23:33;;;;;;;9.68;4.47;;;;;;;12.17;64.88;99914.39;1707278;84;21062;-41
2022/09/10 00:25:59;;;;;;;6.87;3.92;;;;;;;12.15;65.18;99913.98;1707218;84;20986;-41
2022/09/10 00:28:27;;;;;;;6.25;4.10;;;;;;;12.14;65.34;99905.61;1678991;84;21050;-41
2022/09/10 00:30:54;;;;;;;8.00;3.87;;;;;;;12.10;65.46;99906.11;1707252;84;21321;-41
2022/09/10 00:33:21;;;;;;;8.25;4.35;;;;;;;12.07;65.70;99903.52;1707137;84;21569;-41
2022/09/10 00:35:49;;;;;;;6.67;4.10;;;;;;;12.06;65.84;99903.86;1707168;84;21040;-41
2022/09/10 00:38:17;;;;;;;7.58;3.83;;;;;;;12.06;65.85;99902.50;1707157;84;20966;-41
2022/09/10 00:40:46;;;;;;;4.83;3.40;;;;;;;12.07;66.03;99896.72;1707221;83;21105;-41
2022/09/10 00:43:18;;;;;;;7.58;4.30;;;;;;;12.09;66.20;99889.58;1707284;83;21255;-41
2022/09/10 00:45:52;;;;;;;8.15;4.00;;;;;;;12.08;66.33;99887.42;1707201;83;20973;-41
2022/09/10 00:48:28;;;;;;;5.00;3.58;;;;;;;12.05;66.58;99886.00;1707331;84;20938;-41
2022/09/10 00:50:55;;;;;;;5.78;3.60;;;;;;;12.03;66.59;99882.84;1707208;83;20994;-41
2022/09/10 00:53:26;;;;;;;5.67;3.85;;;;;;;12.00;66.81;99879.48;1679060;84;21029;-41
2022/09/10 00:55:58;;;;;;;5.85;3.75;;;;;;;11.99;66.86;99877.91;1707292;84;21113;-41
2022/09/10 00:58:25;;;;;;;7.10;4.12;;;;;;;12.07;66.94;99876.91;1707310;84;21573;-41
2022/09/10 01:00:55;;;;;;;8.10;4.10;;;;;;;12.08;66.92;99877.91;1706622;84;21089;-41
2022/09/10 01:03:22;;;;;;;6.72;4.17;;;;;;;12.08;67.01;99871.69;1701439;84;21041;-41
2022/09/10 01:05:50;;;;;;;5.62;3.58;;;;;;;12.06;67.20;99871.25;1699656;84;21057;-41
2022/09/10 01:08:18;;;;;;;5.58;3.62;;;;;;;12.05;67.47;99866.98;1699519;84;21229;-41
2022/09/10 01:11:13;;;;;;;5.33;3.20;;;;;;;12.04;67.42;99866.76;1699480;84;20966;-41
2022/09/10 01:14:10;;;;;;;5.45;3.30;;;;;;;12.05;67.53;99864.27;1699475;84;20995;-41
2022/09/10 01:17:17;;;;;;;6.35;3.67;;;;;;;12.09;67.58;99867.83;1679177;84;21074;-41
2022/09/10 01:20:16;;;;;;;5.92;3.50;;;;;;;12.04;67.78;99871.63;1699480;84;21050;-41
2022/09/10 01:23:21;;;;;;;5.42;3.17;;;;;;;11.98;68.03;99873.04;1693955;84;21832;-41
2022/09/10 01:26:03;;;;;;;4.42;3.10;;;;;;;11.91;68.33;99866.08;1699236;83;21082;-41
2022/09/10 01:28:41;;;;;;;6.15;3.20;;;;;;;11.90;68.58;99863.74;1699247;84;20973;-41
2022/09/10 01:31:17;;;;;;;8.10;3.47;;;;;;;11.91;68.65;99863.96;1699271;84;21610;-41
2022/09/10 01:33:56;;;;;;;5.45;3.12;;;;;;;11.90;68.82;99855.59;1698988;84;21046;-41
2022/09/10 01:36:25;;;;;;;6.70;3.20;;;;;;;11.87;68.96;99859.00;1699160;83;21832;-41
2022/09/10 01:38:51;;;;;;;4.85;2.83;;;;;;;11.80;69.16;99858.86;1699148;84;20934;-41
2022/09/10 01:41:22;;;;;;;3.60;2.50;;;;;;;11.80;69.33;99857.50;1699165;84;21044;-41
2022/09/10 01:43:49;;;;;;;5.62;3.02;;;;;;;11.87;69.33;99848.13;1679771;84;21588;-41
2022/09/10 01:46:38;;;;;;;4.70;2.65;;;;;;;11.91;69.38;99846.30;1699361;84;21301;-41
2022/09/10 01:49:31;;;;;;;4.53;2.77;;;;;;;11.90;69.33;99842.00;1699493;83;21313;-41
2022/09/10 01:52:24;;;;;;;4.37;3.20;;;;;;;11.88;69.50;99840.20;1698845;84;20938;-41
2022/09/10 01:55:17;;;;;;;5.72;2.75;;;;;;;11.86;69.61;99831.64;1699315;84;21021;-41
2022/09/10 01:58:06;;;;;;;4.53;2.75;;;;;;;11.85;69.59;99824.63;1673160;84;20994;-41
2022/09/10 02:00:35;;;;;;;3.90;3.07;;;;;;;11.91;69.62;99821.84;1694448;84;21058;-41
2022/09/10 02:03:10;;;;;;;3.55;2.60;;;;;;;11.90;69.69;99815.63;1676945;84;21160;-41
2022/09/10 02:05:39;;;;;;;4.92;2.87;;;;;;;11.90;69.77;99803.97;1694646;84;21017;-41
2022/09/10 02:08:21;;;;;;;4.40;2.50;;;;;;;11.89;69.72;99809.97;1675515;84;21025;-41
2022/09/10 02:10:53;;;;;;;3.17;2.37;;;;;;;11.86;69.75;99799.80;1694704;84;20989;-41
2022/09/10 02:13:22;;;;;;;3.83;2.65;;;;;;;11.89;69.81;99806.47;1748091;82;21024;-41
2022/09/10 02:15:55;;;;;;;5.47;2.72;;;;;;;11.95;69.88;99798.25;1721434;82;21299;-41
2022/09/10 02:18:25;;;;;;;2.62;2.20;;;;;;;11.95;69.93;99792.25;1719905;82;21547;-41
2022/09/10 02:20:57;;;;;;;4.05;2.67;;;;;;;11.65;69.88;99743.66;1748437;82;21660;-41
2022/09/10 02:23:41;;;;;;;4.62;2.25;;;;;;;11.95;69.83;99794.17;1748533;82;21016;-42
2022/09/10 02:26:08;;;;;;;3.37;2.42;;;;;;;11.94;69.80;99789.88;1748680;82;20981;-42
2022/09/10 02:28:36;;;;;;;2.75;2.00;;;;;;;11.96;69.89;99797.88;1748475;82;21135;-42
2022/09/10 02:31:03;;;;;;;4.35;2.52;;;;;;;11.99;69.87;99789.59;1748337;82;22187;-42
2022/09/10 02:33:31;;;;;;;3.62;2.40;;;;;;;11.96;70.06;99788.36;1748409;82;21023;-42
2022/09/10 02:35:59;;;;;;;3.87;2.60;;;;;;;11.97;70.22;99789.16;1748297;82;21629;-42
2022/09/10 02:38:28;;;;;;;7.15;2.10;;;;;;;11.99;70.23;99781.44;1748372;82;21040;-42
2022/09/10 02:40:58;;;;;;;3.30;2.37;;;;;;;12.04;70.06;99781.16;1719249;82;21117;-41
2022/09/10 02:43:28;;;;;;;3.00;2.35;;;;;;;12.06;69.96;99785.08;1748494;82;21075;-41
2022/09/10 02:45:57;;;;;;;3.08;2.27;;;;;;;12.06;69.90;99787.79;1748316;82;21060;-41
2022/09/10 02:48:25;;;;;;;3.40;2.47;;;;;;;12.02;70.15;99778.78;1748308;82;21568;-42
2022/09/10 02:50:53;;;;;;;2.95;2.65;;;;;;;12.03;70.23;99785.01;1719091;82;20997;-42
2022/09/10 02:53:20;;;;;;;2.98;2.10;;;;;;;12.03;70.28;99785.80;1748221;82;21230;-42
2022/09/10 02:55:49;;;;;;;3.33;2.22;;;;;;;12.07;70.16;99783.94;1748074;82;21016;-42
2022/09/10 02:58:16;;;;;;;4.30;2.22;;;;;;;12.12;70.09;99788.29;1748366;82;20909;-41
2022/09/10 03:00:44;;;;;;;2.77;2.00;;;;;;;12.16;70.15;99787.78;1748255;82;20988;-42
2022/09/10 03:03:12;;;;;;;4.05;2.10;;;;;;;12.20;70.21;99784.55;1751709;81;20997;-42
2022/09/10 03:05:40;;;;;;;3.05;2.25;;;;;;;12.23;70.14;99785.22;1756308;81;21147;-42
2022/09/10 03:08:08;;;;;;;5.33;2.03;;;;;;;12.25;70.08;99788.34;1694553;83;21056;-41
2022/09/10 03:10:37;;;;;;;3.40;2.10;;;;;;;12.29;69.95;99787.07;1720167;83;21063;-42
2022/09/10 03:13:05;;;;;;;5.65;1.87;;;;;;;12.33;69.82;99790.06;1720212;83;21056;-42
2022/09/10 03:15:33;;;;;;;2.83;1.90;;;;;;;12.35;69.83;99790.48;1720322;83;21047;-42
2022/09/10 03:18:00;;;;;;;4.85;1.67;;;;;;;12.33;69.92;99792.78;1720301;83;21138;-42
2022/09/10 03:20:27;;;;;;;2.40;1.80;;;;;;;12.31;70.02;99786.91;1720084;83;20999;-42
2022/09/10 03:22:54;;;;;;;2.30;1.67;;;;;;;12.30;70.10;99787.26;1720241;83;21024;-42
2022/09/10 03:25:21;;;;;;;1.75;1.65;;;;;;;12.31;70.15;99792.34;1720308;83;21552;-42
2022/09/10 03:27:48;;;;;;;2.87;1.75;;;;;;;12.37;70.06;99782.75;1720497;83;21028;-42
2022/09/10 03:30:16;;;;;;;2.85;1.80;;;;;;;12.40;70.03;99784.74;1720545;83;21146;-42
2022/09/10 03:32:43;;;;;;;2.72;1.45;;;;;;;12.39;70.16;99783.16;1720265;83;20984;-42
2022/09/10 03:35:12;;;;;;;1.80;1.60;;;;;;;12.39;70.30;99770.92;1720427;83;20886;-42
2022/09/10 03:37:39;;;;;;;3.58;1.52;;;;;;;12.37;70.29;99771.88;1720385;83;21487;-42
2022/09/10 03:40:09;;;;;;;1.67;1.45;;;;;;;12.39;70.33;99759.30;1720460;83;21036;-42
2022/09/10 03:42:37;;;;;;;2.10;1.50;;;;;;;12.43;70.22;99759.56;1719858;83;21235;-41
2022/09/10 03:45:06;;;;;;;1.98;1.45;;;;;;;12.43;70.26;99758.20;1689753;84;21037;-42
2022/09/10 03:47:33;;;;;;;1.72;1.30;;;;;;;12.40;70.50;99762.98;1719022;83;20959;-42
2022/09/10 03:50:00;;;;;;;2.35;1.60;;;;;;;12.36;70.58;99752.62;1718650;83;21062;-42
2022/09/10 03:52:28;;;;;;;1.87;1.35;;;;;;;12.33;70.76;99750.64;1718728;83;21027;-42
2022/09/10 03:54:57;;;;;;;2.30;1.20;;;;;;;12.35;70.84;99747.55;1718824;83;21226;-42
2022/09/10 03:57:25;;;;;;;2.45;1.47;;;;;;;12.43;70.80;99750.62;1718635;83;21018;-42
2022/09/10 03:59:52;;;;;;;1.87;1.37;;;;;;;12.46;70.72;99751.24;1718702;83;21027;-41
2022/09/10 04:02:19;;;;;;;1.90;1.32;;;;;;;12.43;70.88;99748.69;1718596;83;21095;-42
2022/09/10 04:04:46;;;;;;;1.90;1.30;;;;;;;12.41;70.95;99748.25;1706332;83;21616;-42
2022/09/10 04:07:15;;;;;;;1.30;1.20;;;;;;;12.38;71.05;99744.91;1741502;82;22032;-41
2022/09/10 04:09:41;;;;;;;2.10;1.15;;;;;;;12.38;71.17;99747.63;1741278;82;20975;-41
2022/09/10 04:12:09;;;;;;;1.95;1.00;;;;;;;12.44;71.06;99751.59;1741367;82;21021;-42
2022/09/10 04:14:36;;;;;;;2.00;1.20;;;;;;;12.49;71.07;99754.02;1741220;82;21098;-42
2022/09/10 04:17:04;;;;;;;1.42;1.30;;;;;;;12.49;71.15;99737.70;1734424;82;21053;-41
2022/09/10 04:19:32;;;;;;;1.30;1.20;;;;;;;12.49;71.18;99730.14;1734570;82;21126;-42
2022/09/10 04:21:58;;;;;;;1.72;1.50;;;;;;;12.47;71.20;99729.14;1734562;82;21543;-42
2022/09/10 04:24:25;;;;;;;2.42;1.30;;;;;;;12.47;71.26;99726.42;1734482;82;20974;-42
2022/09/10 04:26:52;;;;;;;1.77;1.22;;;;;;;12.51;71.30;99729.98;1734543;82;20969;-42
2022/09/10 04:29:19;;;;;;;1.65;1.20;;;;;;;12.51;71.45;99728.62;1734747;82;21046;-42
2022/09/10 04:31:47;;;;;;;2.20;1.50;;;;;;;12.51;71.54;99724.54;1734358;82;21249;-42
2022/09/10 04:34:16;;;;;;;1.35;1.20;;;;;;;12.53;71.54;99737.22;1734813;82;20950;-42
2022/09/10 04:36:42;;;;;;;3.83;1.30;;;;;;;12.59;71.39;99735.73;1734567;82;21020;-42
2022/09/10 04:39:10;;;;;;;1.67;1.10;;;;;;;12.64;71.25;99731.36;1734722;82;20985;-42
2022/09/10 04:41:37;;;;;;;2.27;1.47;;;;;;;12.70;71.26;99725.61;1742902;82;21587;-42
2022/09/10 04:44:06;;;;;;;1.30;1.20;;;;;;;12.71;71.29;99712.22;1743039;82;21221;-42
2022/09/10 04:46:35;;;;;;;3.50;1.07;;;;;;;12.72;71.27;99718.67;1743182;82;21571;-42
2022/09/10 04:49:03;;;;;;;2.03;1.30;;;;;;;12.70;71.33;99718.23;1743420;82;21012;-41
2022/09/10 04:51:32;;;;;;;1.15;1.05;;;;;;;12.71;71.35;99721.17;1742790;82;21092;-42
2022/09/10 04:54:00;;;;;;;2.08;1.10;;;;;;;12.74;71.31;99726.45;1743090;82;21010;-42
2022/09/10 04:56:29;;;;;;;1.98;1.20;;;;;;;12.78;71.37;99723.23;1706947;83;21139;-42
2022/09/10 04:58:56;;;;;;;1.00;0.90;;;;;;;12.78;71.40;99723.99;1707067;84;21310;-42
2022/09/10 05:01:23;;;;;;;1.37;1.22;;;;;;;12.79;71.41;99713.89;1707128;84;21053;-42
2022/09/10 05:03:51;;;;;;;1.22;1.12;;;;;;;12.78;71.38;99713.71;1742649;82;20954;-42
2022/09/10 05:06:19;;;;;;;1.40;1.10;;;;;;;12.78;71.34;99704.19;1742806;82;20974;-42
2022/09/10 05:08:47;;;;;;;1.72;1.02;;;;;;;12.79;71.33;99707.88;1742809;81;21195;-42
2022/09/10 05:11:14;;;;;;;1.30;1.10;;;;;;;12.76;71.48;99704.55;1742843;82;20997;-42
2022/09/10 05:13:41;;;;;;;3.05;1.00;;;;;;;12.75;71.68;99704.90;1742748;81;21044;-42
2022/09/10 05:16:11;;;;;;;1.37;0.90;;;;;;;12.75;71.69;99701.61;1743074;81;21575;-42
2022/09/10 05:18:38;;;;;;;1.15;1.00;;;;;;;12.76;71.77;99701.82;1743138;81;21606;-42
2022/09/10 05:21:06;;;;;;;3.00;1.10;;;;;;;12.83;71.56;99703.28;1742888;82;21138;-42
2022/09/10 05:23:33;;;;;;;1.00;0.90;;;;;;;12.85;71.59;99705.06;1742806;81;21005;-42
2022/09/10 05:26:02;;;;;;;1.27;1.00;;;;;;;12.87;71.54;99708.80;1743025;81;21606;-42
2022/09/10 05:28:30;;;;;;;4.05;1.37;;;;;;;12.85;71.50;99705.64;1742993;81;21547;-42
2022/09/10 05:30:57;;;;;;;1.65;1.10;;;;;;;12.84;71.63;99707.58;1743113;81;21535;-42
2022/09/10 05:33:26;;;;;;;2.02;1.40;;;;;;;12.84;71.64;99706.78;1707104;83;21246;-42
2022/09/10 05:35:53;;;;;;;1.20;1.10;;;;;;;12.91;71.53;99706.91;1707107;84;21443;-42
2022/09/10 05:38:22;;;;;;;1.55;1.00;;;;;;;12.96;71.44;99712.83;1707277;84;21025;-42
2022/09/10 05:40:49;;;;;;;1.82;1.30;;;;;;;13.00;71.37;99710.14;1707358;84;21032;-41
2022/09/10 05:43:16;;;;;;;1.52;1.27;;;;;;;13.00;71.22;99708.22;1707262;84;21025;-42
2022/09/10 05:45:45;;;;;;;1.30;1.17;;;;;;;12.99;71.09;99708.57;1707305;84;21976;-42
2022/09/10 05:48:13;;;;;;;1.45;1.20;;;;;;;12.97;71.07;99703.48;1707324;84;20974;-42
2022/09/10 05:50:44;;;;;;;1.17;1.02;;;;;;;13.01;70.91;99710.36;1707171;84;20957;-42
2022/09/10 05:53:13;;;;;;;1.27;1.15;;;;;;;13.02;70.85;99717.38;1707486;84;21033;-41
2022/09/10 05:55:40;;;;;;;1.70;1.20;;;;;;;12.99;71.06;99724.91;1743068;82;21045;-42
2022/09/10 05:58:07;;;;;;;1.40;1.30;;;;;;;12.97;71.11;99719.81;1743018;81;21346;-41
2022/09/10 06:00:35;;;;;;;1.20;1.10;;;;;;;12.96;70.98;99717.48;1706948;84;21001;-42
2022/09/10 06:03:04;;;;;;;1.30;1.20;;;;;;;12.93;71.12;99720.91;1707099;84;21039;-42
2022/09/10 06:05:32;;;;;;;2.33;1.50;;;;;;;13.00;71.08;99716.95;1742433;81;20965;-42
2022/09/10 06:08:02;;;;;;;1.40;1.20;;;;;;;13.05;71.02;99720.72;1707023;84;22096;-42
2022/09/10 06:10:31;;;;;;;1.42;1.30;;;;;;;13.04;71.01;99719.14;1706886;84;21768;-42
2022/09/10 06:13:00;;;;;;;2.70;1.30;;;;;;;13.03;71.00;99717.00;1707330;84;21005;-42
2022/09/10 06:18:19;;;;;;;1.15;1.02;;;;;;;13.07;70.88;99726.56;1796793;79;22648;-41
2022/09/10 06:20:47;;;;;;;1.80;1.32;;;;;;;13.03;70.93;99729.24;1756766;81;20961;-41
2022/09/10 06:23:16;;;;;;;2.10;1.55;;;;;;;13.05;70.90;99718.00;1756514;81;23151;-41
2022/09/10 06:25:47;;;;;;;2.22;1.30;;;;;;;13.03;70.92;99713.48;1756563;81;20953;-41
2022/09/10 06:28:15;;;;;;;1.67;1.07;;;;;;;13.00;70.83;99716.38;1756724;81;21016;-41
2022/09/10 06:30:41;;;;;;;2.58;1.22;;;;;;;12.98;70.99;99705.06;1756664;81;20902;-41
2022/09/10 06:33:09;;;;;;;1.87;1.55;;;;;;;12.98;70.91;99707.78;1756772;81;21020;-41
2022/09/10 06:35:36;;;;;;;1.62;1.52;;;;;;;12.96;71.03;99708.74;1756583;81;21094;-41
2022/09/10 06:38:03;;;;;;;1.52;1.30;;;;;;;12.94;71.19;99701.51;1756589;81;20981;-41
2022/09/10 06:40:31;;;;;;;2.17;1.40;;;;;;;12.94;71.16;99699.36;1756452;81;20898;-41
2022/09/10 06:43:01;;;;;;;2.10;1.25;;;;;;;12.95;71.08;99703.08;1756088;81;21073;-41
2022/09/10 06:45:39;;;;;;;1.25;1.10;;;;;;;13.02;71.06;99696.37;1719915;83;21087;-41
2022/09/10 06:48:26;;;;;;;1.70;1.30;;;;;;;13.05;70.92;99702.45;1665560;83;21791;-41
2022/09/10 06:50:55;;;;;;;1.57;1.30;;;;;;;13.04;70.92;99694.65;1723165;83;21543;-41
2022/09/10 06:53:26;;;;;;;1.50;1.20;;;;;;;12.99;70.80;99698.47;1723076;83;21641;-41
2022/09/10 06:55:55;;;;;;;1.37;1.20;;;;;;;12.98;70.83;99706.99;1723244;83;21007;-41
2022/09/10 06:58:23;;;;;;;1.32;1.10;;;;;;;12.96;70.80;99706.59;1723204;83;21020;-41
2022/09/10 07:00:50;;;;;;;1.90;1.40;;;;;;;13.00;70.65;99712.87;1723234;83;21275;-41
2022/09/10 07:03:20;;;;;;;2.10;1.55;;;;;;;12.98;70.68;99711.86;1723067;83;21464;-41
2022/09/10 07:05:47;;;;;;;1.60;1.32;;;;;;;12.96;70.72;99714.76;1694312;83;20972;-41
2022/09/10 07:08:16;;;;;;;1.60;1.50;;;;;;;12.93;70.75;99714.11;1723142;83;20937;-41
2022/09/10 07:10:45;;;;;;;1.98;1.35;;;;;;;12.90;70.76;99708.05;1723259;83;21012;-41
2022/09/10 07:13:14;;;;;;;1.87;1.50;;;;;;;12.87;70.91;99708.22;1723148;83;21145;-41
2022/09/10 07:15:45;;;;;;;1.90;1.45;;;;;;;12.93;70.99;99715.47;1722952;83;21499;-41
2022/09/10 07:18:13;;;;;;;2.35;1.92;;;;;;;12.96;70.88;99719.63;1716662;83;20949;-41
2022/09/10 07:20:42;;;;;;;2.20;1.80;;;;;;;12.96;70.96;99717.48;1715348;83;21020;-41
2022/09/10 07:23:12;;;;;;;;;;;;;;;12.96;70.96;99716.12;1718080;83;21563;-41
2022/09/10 07:25:39;;;;;;;3.33;1.92;;;;;;;12.94;70.86;99708.88;1699757;84;21189;-41
2022/09/10 07:28:12;;;;;;;3.03;2.10;;;;;;;12.81;71.33;99702.09;1707535;84;20907;-41
2022/09/10 07:30:42;;;;;;;6.40;4.47;;;;;;;12.80;71.24;99704.02;1706995;83;21552;-41
2022/09/10 07:33:14;;;;;;;4.90;3.47;;;;;;;12.85;71.14;99709.72;1706969;84;20993;-41
2022/09/10 07:35:40;;;;;;;3.45;2.60;;;;;;;12.92;71.15;99709.27;1706848;83;21061;-41
2022/09/10 07:38:16;;;;;;;4.10;3.35;;;;;;;12.93;71.08;99710.03;1706954;84;21121;-41
2022/09/10 07:40:44;;;;;;;8.03;5.70;;;;;;;12.92;71.13;99708.48;1707072;84;21053;-41
2022/09/10 07:43:11;;;;;;;5.20;3.35;;;;;;;12.90;71.19;99708.05;1707141;83;20985;-41
2022/09/10 07:45:39;;;;;;;7.05;5.80;;;;;;;12.90;71.19;99703.40;1707005;84;21049;-41
2022/09/10 07:48:06;;;;;;;2.45;2.25;;;;;;;12.93;71.08;99691.77;1707272;83;22173;-41
2022/09/10 07:50:35;;;;;;;3.30;2.60;;;;;;;13.00;71.08;99695.97;1706875;84;21159;-41
2022/09/10 07:53:02;;;;;;;2.58;2.37;;;;;;;13.02;71.06;99688.80;1707411;84;21532;-41
2022/09/10 07:55:30;;;;;;;2.92;2.62;;;;;;;13.04;71.05;99700.88;1707098;83;21548;-41
2022/09/10 07:57:58;;;;;;;3.30;2.52;;;;;;;13.06;70.93;99692.36;1707094;84;21094;-41
2022/09/10 08:00:25;;;;;;;2.52;2.25;;;;;;;13.07;70.79;99693.91;1707028;84;21050;-41
2022/09/10 08:02:54;;;;;;;2.90;2.02;;;;;;;13.16;70.78;99695.05;1706882;83;21196;-41
2022/09/10 08:05:21;;;;;;;4.37;2.02;;;;;;;13.20;70.52;99699.39;1706949;84;21025;-41
2022/09/10 08:07:50;;;;;;;2.90;2.40;;;;;;;13.16;70.43;99697.20;1706916;84;21017;-41
2022/09/10 08:10:19;;;;;;;3.62;2.40;;;;;;;13.15;70.50;99706.52;1678515;84;21025;-41
2022/09/10 08:12:48;;;;;;;3.65;2.87;;;;;;;13.12;70.58;99708.59;1679436;84;21065;-41
2022/09/10 08:15:16;;;;;;;11.05;6.80;;;;;;;13.16;70.62;99701.28;1706924;84;21194;-41
2022/09/10 08:17:44;;;;;;;9.00;6.47;;;;;;;13.21;70.35;99699.60;1703202;83;20978;-41
2022/09/10 08:20:12;;;;;;;9.33;5.83;;;;;;;13.24;70.14;99687.17;1699510;84;21583;-41
2022/09/10 08:22:42;;;;;;;9.53;6.87;;;;;;;13.19;70.17;99685.56;1699343;83;21630;-41
2022/09/10 08:25:08;;;;;;;6.15;5.40;;;;;;;13.16;70.32;99680.08;1699429;83;21101;-41
2022/09/10 08:27:37;;;;;;;3.60;3.08;;;;;;;13.11;70.33;99679.82;1699314;83;21291;-41
2022/09/10 08:30:08;;;;;;;4.80;4.15;;;;;;;13.11;70.53;99677.64;1699737;84;20995;-41
2022/09/10 08:32:35;;;;;;;4.20;3.72;;;;;;;13.15;70.62;99677.92;1699621;84;28533;-41
2022/09/10 08:35:03;;;;;;;5.90;4.25;;;;;;;13.19;70.37;99677.39;1699371;83;21006;-41
2022/09/10 08:37:32;;;;;;;5.03;3.75;;;;;;;13.18;70.46;99674.45;1679049;84;21097;-41
2022/09/10 08:39:59;;;;;;;5.58;3.40;;;;;;;13.18;70.51;99675.03;1699437;83;21135;-41
2022/09/10 08:42:41;;;;;;;12.68;8.25;;;;;;;13.17;70.62;99661.98;1699495;84;21017;-41
2022/09/10 08:45:25;;;;;;;3.12;2.62;;;;;;;13.20;70.41;99665.36;1699796;83;21018;-41
2022/09/10 08:48:18;;;;;;;3.58;3.02;;;;;;;13.25;70.30;99665.03;1699452;84;20986;-41
2022/09/10 08:50:56;;;;;;;3.20;2.87;;;;;;;13.24;70.37;99663.45;1679181;84;21053;-41
2022/09/10 08:53:33;;;;;;;3.45;3.05;;;;;;;13.20;70.35;99668.08;1699439;84;21907;-41
2022/09/10 08:56:04;;;;;;;3.35;3.05;;;;;;;13.20;70.41;99659.13;1699172;84;21491;-41
2022/09/10 08:58:54;;;;;;;3.50;2.77;;;;;;;13.17;70.32;99661.98;1699371;83;21068;-41
2022/09/10 09:01:33;;;;;;;4.00;3.20;;;;;;;13.19;70.32;99661.06;1699548;84;21051;-41
2022/09/10 09:04:04;;;;;;;4.08;3.67;;;;;;;13.22;70.24;99665.75;1699322;84;21540;-41
2022/09/10 09:06:37;;;;;;;;;;;;;;;13.21;70.20;99658.77;1701854;83;21150;-41
2022/09/10 09:09:06;;;;;;;4.85;3.95;;;;;;;13.16;70.35;99656.36;1699149;84;20176;-41
2022/09/10 09:12:06;;;;;;;5.22;4.20;;;;;;;13.05;70.89;99654.83;1699237;83;21038;-41
2022/09/10 09:14:56;;;;;;;;;;;;;;;13.10;70.85;99657.80;1701939;84;20974;-41
2022/09/10 09:17:54;;;;;;;5.17;4.10;;;;;;;13.10;70.70;99655.08;1703778;83;20200;-41
2022/09/10 09:20:45;;;;;;;4.97;4.47;;;;;;;13.08;70.88;99653.29;1720261;83;22092;-41
2022/09/10 09:23:22;;;;;;;4.42;4.03;;;;;;;13.10;70.89;99644.19;1720355;83;20945;-41
2022/09/10 09:26:11;;;;;;;5.28;4.78;;;;;;;13.09;70.81;99634.45;1720213;83;21050;-41
2022/09/10 09:29:01;;;;;;;4.33;3.80;;;;;;;13.08;70.79;99642.40;1720045;83;21088;-41
2022/09/10 09:31:31;;;;;;;5.65;4.50;;;;;;;13.02;70.65;99638.45;1720108;83;21037;-41
2022/09/10 09:34:32;;;;;;;5.40;4.50;;;;;;;12.97;70.76;99625.92;1720042;83;21064;-41
2022/09/10 09:37:02;;;;;;;3.97;3.67;;;;;;;13.00;70.92;99630.65;1682747;83;21582;-41
2022/09/10 09:39:43;;;;;;;5.33;4.83;;;;;;;12.97;70.96;99631.37;1720748;83;20942;-41
2022/09/10 09:42:45;;;;;;;6.03;4.45;;;;;;;12.97;71.15;99626.53;1720400;83;21365;-41
2022/09/10 09:45:27;;;;;;;6.12;4.47;;;;;;;12.96;71.20;99620.87;1720420;83;21060;-41
2022/09/10 09:47:54;;;;;;;4.40;4.00;;;;;;;12.98;70.98;99615.83;1720384;83;21215;-41
2022/09/10 09:50:21;;;;;;;6.53;5.78;;;;;;;12.97;70.96;99616.39;1720452;83;21526;-41
2022/09/10 09:52:53;;;;;;;4.95;4.40;;;;;;;12.96;71.11;99603.18;1720209;83;21080;-41
2022/09/10 09:55:39;;;;;;;5.17;4.47;;;;;;;12.94;71.23;99608.20;1719913;83;21045;-41
2022/09/10 09:58:25;;;;;;;3.92;3.40;;;;;;;12.91;71.24;99606.22;1720143;83;21515;-41
2022/09/10 10:01:13;;;;;;;4.00;3.60;;;;;;;12.90;71.37;99606.80;1720048;83;21194;-41
2022/09/10 10:04:01;;;;;;;4.95;4.45;;;;;;;12.93;71.34;99599.81;1720021;83;20981;-41
2022/09/10 10:06:33;;;;;;;6.08;5.37;;;;;;;12.93;71.47;99597.09;1720063;83;21057;-41
2022/09/10 10:09:03;;;;;;;7.15;5.10;;;;;;;12.93;71.58;99590.30;1720045;83;21004;-41
2022/09/10 10:11:57;;;;;;;6.45;4.75;;;;;;;12.93;71.72;99586.21;1693777;83;21028;-41
2022/09/10 10:14:40;;;;;;;7.05;6.28;;;;;;;12.98;71.57;99592.12;1718240;83;21247;-41
2022/09/10 10:17:29;;;;;;;5.83;5.30;;;;;;;13.02;71.38;99591.58;1720033;83;21092;-41
2022/09/10 10:20:01;;;;;;;5.33;4.83;;;;;;;13.05;71.48;99590.86;1720506;83;20981;-41
2022/09/10 10:22:31;;;;;;;7.40;6.70;;;;;;;13.06;71.47;99589.72;1720408;83;21100;-41
2022/09/10 10:25:00;;;;;;;6.37;5.78;;;;;;;13.07;71.45;99589.90;1720374;83;21928;-41
2022/09/10 10:27:44;;;;;;;7.55;5.22;;;;;;;13.08;71.32;99579.22;1719246;83;21095;-41
2022/09/10 10:30:23;;;;;;;5.22;4.72;;;;;;;13.09;71.17;99574.56;1715538;83;21015;-41
2022/09/10 10:32:56;;;;;;;5.87;4.80;;;;;;;13.15;71.13;99583.22;1714344;83;20992;-41
2022/09/10 10:35:55;;;;;;;5.92;5.30;;;;;;;13.17;71.21;99578.20;1687049;85;21494;-41
2022/09/10 10:38:29;;;;;;;7.30;5.80;;;;;;;13.19;71.26;99575.88;1687007;85;21039;-41
2022/09/10 10:41:39;;;;;;;5.17;4.67;;;;;;;13.15;70.99;99571.76;1686925;85;21663;-41
2022/09/10 10:44:57;;;;;;;5.08;4.37;;;;;;;13.12;71.12;99573.84;1687279;85;21019;-41
2022/09/10 10:47:42;;;;;;;4.90;4.17;;;;;;;13.17;71.12;99572.76;1686867;85;21063;-41
2022/09/10 10:50:26;;;;;;;5.53;5.03;;;;;;;13.19;71.08;99567.71;1686862;85;21059;-41
2022/09/10 10:53:04;;;;;;;5.37;4.72;;;;;;;13.16;71.06;99565.73;1686841;85;21095;-41
2022/09/10 10:55:40;;;;;;;5.50;4.97;;;;;;;13.14;71.21;99557.94;1661577;85;21205;-41
2022/09/10 10:58:15;;;;;;;6.75;4.80;;;;;;;13.15;71.13;99563.59;1718944;83;21482;-41
2022/09/10 11:00:47;;;;;;;4.85;4.28;;;;;;;13.18;71.24;99561.48;1702129;84;21012;-41
2022/09/10 11:03:24;;;;;;;4.50;4.10;;;;;;;13.22;71.05;99547.33;1702321;84;21066;-41
2022/09/10 11:06:07;;;;;;;5.53;5.03;;;;;;;13.24;70.99;99547.75;1702399;84;21121;-41
2022/09/10 11:08:49;;;;;;;5.72;5.12;;;;;;;13.20;71.32;99546.93;1702227;84;21929;-41
2022/09/10 11:11:40;;;;;;;4.97;4.58;;;;;;;13.22;71.41;99545.96;1701538;84;21044;-41
2022/09/10 11:14:31;;;;;;;4.92;4.37;;;;;;;13.25;71.45;99541.16;1700557;84;21053;-41
2022/09/10 11:17:03;;;;;;;5.08;4.58;;;;;;;13.32;71.30;99539.85;1702365;84;20961;-41
2022/09/10 11:19:47;;;;;;;8.03;5.25;;;;;;;13.34;71.38;99536.19;1700692;83;21116;-41
2022/09/10 11:22:21;;;;;;;5.95;5.45;;;;;;;13.38;71.59;99537.01;1688657;84;21092;-41
2022/09/10 11:24:55;;;;;;;6.05;5.45;;;;;;;13.39;71.41;99529.05;1700209;84;21048;-41
2022/09/10 11:27:37;;;;;;;5.87;5.25;;;;;;;13.36;71.48;99528.41;1700447;84;21051;-41
2022/09/10 11:30:12;;;;;;;5.08;4.58;;;;;;;13.35;71.65;99522.79;1700180;84;21069;-41
2022/09/10 11:32:47;;;;;;;6.75;5.17;;;;;;;13.40;71.57;99525.17;1700459;84;21120;-41
2022/09/10 11:35:38;;;;;;;7.22;5.92;;;;;;;13.45;71.69;99526.77;1700242;84;21209;-41
2022/09/10 11:38:28;;;;;;;6.97;6.28;;;;;;;13.46;71.67;99515.48;1699990;84;20949;-41
2022/09/10 11:41:10;;;;;;;7.15;5.87;;;;;;;13.42;71.77;99502.99;1699941;84;21060;-41
2022/09/10 11:43:51;;;;;;;8.08;6.72;;;;;;;13.46;71.78;99503.80;1699981;84;21650;-41
2022/09/10 11:46:30;;;;;;;8.70;7.72;;;;;;;13.51;71.67;99498.63;1700120;84;21658;-41
2022/09/10 11:49:05;;;;;;;11.08;9.40;;;;;;;13.51;71.72;99498.63;1700363;84;21868;-41
2022/09/10 11:51:40;;;;;;;10.38;8.88;;;;;;;13.47;71.86;99500.72;1700096;84;21048;-41
2022/09/10 11:54:16;;;;;;;10.48;8.28;;;;;;;13.44;71.93;99496.03;1699380;84;20988;-41
2022/09/10 11:57:06;;;;;;;10.05;8.35;;;;;;;13.47;71.76;99495.27;1699999;84;21069;-41
2022/09/10 11:59:55;;;;;;;;;;;;;;;13.52;71.77;99497.44;1702814;84;21009;-41
2022/09/10 12:03:19;;;;;;;11.15;10.05;;;;;;;13.52;71.92;99489.27;1700486;84;21345;-41
2022/09/10 12:06:10;;;;;;;14.03;11.65;;;;;;;13.41;72.40;99485.08;1699933;84;21102;-41